sensor_id;sensor_type;location;lat;lon;timestamp;P1;durP1;ratioP1;P2;durP2;ratioP2
55784;SDS011;41709;52.536;5.688;2023-09-30T00:00:14;12.10;;;3.15;;
55784;SDS011;41709;52.536;5.688;2023-09-30T00:02:39;10.60;;;2.80;;
55784;SDS011;41709;52.536;5.688;2023-09-30T00:05:05;11.07;;;2.97;;
55784;SDS011;41709;52.536;5.688;2023-09-30T00:07:31;11.48;;;4.05;;
55784;SDS011;41709;52.536;5.688;2023-09-30T00:09:57;6.95;;;2.55;;
55784;SDS011;41709;52.536;5.688;2023-09-30T00:12:22;10.40;;;2.78;;
55784;SDS011;41709;52.536;5.688;2023-09-30T00:14:48;10.52;;;2.70;;
55784;SDS011;41709;52.536;5.688;2023-09-30T00:17:14;11.60;;;2.78;;
55784;SDS011;41709;52.536;5.688;2023-09-30T00:19:40;12.82;;;2.90;;
55784;SDS011;41709;52.536;5.688;2023-09-30T00:22:05;15.68;;;4.28;;
55784;SDS011;41709;52.536;5.688;2023-09-30T00:24:31;11.80;;;2.97;;
55784;SDS011;41709;52.536;5.688;2023-09-30T00:26:57;6.68;;;2.97;;
55784;SDS011;41709;52.536;5.688;2023-09-30T00:29:22;13.95;;;3.22;;
55784;SDS011;41709;52.536;5.688;2023-09-30T00:31:48;9.65;;;2.78;;
55784;SDS011;41709;52.536;5.688;2023-09-30T00:34:14;10.18;;;3.53;;
55784;SDS011;41709;52.536;5.688;2023-09-30T00:36:39;11.70;;;3.70;;
55784;SDS011;41709;52.536;5.688;2023-09-30T00:39:06;12.13;;;2.80;;
55784;SDS011;41709;52.536;5.688;2023-09-30T00:41:33;10.73;;;3.15;;
55784;SDS011;41709;52.536;5.688;2023-09-30T00:43:59;11.40;;;2.83;;
55784;SDS011;41709;52.536;5.688;2023-09-30T00:46:31;12.85;;;3.10;;
55784;SDS011;41709;52.536;5.688;2023-09-30T00:49:00;10.40;;;3.20;;
55784;SDS011;41709;52.536;5.688;2023-09-30T00:51:27;12.15;;;3.15;;
55784;SDS011;41709;52.536;5.688;2023-09-30T00:53:54;10.75;;;3.83;;
55784;SDS011;41709;52.536;5.688;2023-09-30T00:56:23;6.80;;;2.60;;
55784;SDS011;41709;52.536;5.688;2023-09-30T00:58:51;8.73;;;2.72;;
55784;SDS011;41709;52.536;5.688;2023-09-30T01:01:18;9.70;;;2.75;;
55784;SDS011;41709;52.536;5.688;2023-09-30T01:03:47;11.20;;;3.35;;
55784;SDS011;41709;52.536;5.688;2023-09-30T01:06:13;6.78;;;2.80;;
55784;SDS011;41709;52.536;5.688;2023-09-30T01:08:39;13.80;;;3.50;;
55784;SDS011;41709;52.536;5.688;2023-09-30T01:11:05;7.07;;;3.22;;
55784;SDS011;41709;52.536;5.688;2023-09-30T01:13:32;11.52;;;3.10;;
55784;SDS011;41709;52.536;5.688;2023-09-30T01:16:02;10.65;;;3.63;;
55784;SDS011;41709;52.536;5.688;2023-09-30T01:18:30;11.38;;;3.05;;
55784;SDS011;41709;52.536;5.688;2023-09-30T01:20:57;9.65;;;3.22;;
55784;SDS011;41709;52.536;5.688;2023-09-30T01:23:31;12.63;;;4.30;;
55784;SDS011;41709;52.536;5.688;2023-09-30T01:25:57;10.70;;;3.90;;
55784;SDS011;41709;52.536;5.688;2023-09-30T01:28:25;10.40;;;3.42;;
55784;SDS011;41709;52.536;5.688;2023-09-30T01:30:51;11.52;;;3.83;;
55784;SDS011;41709;52.536;5.688;2023-09-30T01:33:17;11.35;;;4.05;;
55784;SDS011;41709;52.536;5.688;2023-09-30T01:35:43;12.90;;;3.58;;
55784;SDS011;41709;52.536;5.688;2023-09-30T01:38:09;12.02;;;3.78;;
55784;SDS011;41709;52.536;5.688;2023-09-30T01:40:35;13.35;;;4.03;;
55784;SDS011;41709;52.536;5.688;2023-09-30T01:43:02;16.55;;;3.42;;
55784;SDS011;41709;52.536;5.688;2023-09-30T01:45:28;11.55;;;3.38;;
55784;SDS011;41709;52.536;5.688;2023-09-30T01:47:54;13.95;;;4.10;;
55784;SDS011;41709;52.536;5.688;2023-09-30T01:50:19;11.70;;;3.50;;
55784;SDS011;41709;52.536;5.688;2023-09-30T01:52:45;10.13;;;3.25;;
55784;SDS011;41709;52.536;5.688;2023-09-30T01:55:11;12.30;;;3.55;;
55784;SDS011;41709;52.536;5.688;2023-09-30T01:57:36;9.55;;;4.20;;
55784;SDS011;41709;52.536;5.688;2023-09-30T02:00:02;13.05;;;4.05;;
55784;SDS011;41709;52.536;5.688;2023-09-30T02:02:29;14.80;;;3.85;;
55784;SDS011;41709;52.536;5.688;2023-09-30T02:04:55;13.18;;;4.72;;
55784;SDS011;41709;52.536;5.688;2023-09-30T02:07:22;11.00;;;3.47;;
55784;SDS011;41709;52.536;5.688;2023-09-30T02:09:47;13.63;;;4.72;;
55784;SDS011;41709;52.536;5.688;2023-09-30T02:12:14;13.25;;;4.28;;
55784;SDS011;41709;52.536;5.688;2023-09-30T02:14:39;12.43;;;3.97;;
55784;SDS011;41709;52.536;5.688;2023-09-30T02:17:05;10.70;;;3.95;;
55784;SDS011;41709;52.536;5.688;2023-09-30T02:19:30;11.18;;;4.10;;
55784;SDS011;41709;52.536;5.688;2023-09-30T02:21:58;10.68;;;4.00;;
55784;SDS011;41709;52.536;5.688;2023-09-30T02:24:24;12.55;;;4.47;;
55784;SDS011;41709;52.536;5.688;2023-09-30T02:26:50;9.32;;;4.32;;
55784;SDS011;41709;52.536;5.688;2023-09-30T02:29:15;10.35;;;4.55;;
55784;SDS011;41709;52.536;5.688;2023-09-30T02:31:41;12.85;;;4.95;;
55784;SDS011;41709;52.536;5.688;2023-09-30T02:34:07;14.60;;;4.47;;
55784;SDS011;41709;52.536;5.688;2023-09-30T02:36:33;10.57;;;4.57;;
55784;SDS011;41709;52.536;5.688;2023-09-30T02:39:04;9.98;;;4.05;;
55784;SDS011;41709;52.536;5.688;2023-09-30T02:41:30;11.32;;;5.07;;
55784;SDS011;41709;52.536;5.688;2023-09-30T02:43:55;15.68;;;5.28;;
55784;SDS011;41709;52.536;5.688;2023-09-30T02:46:22;13.43;;;5.80;;
55784;SDS011;41709;52.536;5.688;2023-09-30T02:48:48;14.93;;;4.78;;
55784;SDS011;41709;52.536;5.688;2023-09-30T02:51:13;11.07;;;5.00;;
55784;SDS011;41709;52.536;5.688;2023-09-30T02:53:39;12.32;;;5.50;;
55784;SDS011;41709;52.536;5.688;2023-09-30T02:56:05;13.35;;;5.00;;
55784;SDS011;41709;52.536;5.688;2023-09-30T02:58:30;13.77;;;6.18;;
55784;SDS011;41709;52.536;5.688;2023-09-30T03:00:56;13.60;;;5.38;;
55784;SDS011;41709;52.536;5.688;2023-09-30T03:03:21;11.02;;;4.60;;
55784;SDS011;41709;52.536;5.688;2023-09-30T03:05:49;10.40;;;5.18;;
55784;SDS011;41709;52.536;5.688;2023-09-30T03:08:15;12.00;;;5.55;;
55784;SDS011;41709;52.536;5.688;2023-09-30T03:10:41;11.73;;;5.32;;
55784;SDS011;41709;52.536;5.688;2023-09-30T03:13:07;12.13;;;5.15;;
55784;SDS011;41709;52.536;5.688;2023-09-30T03:15:34;10.05;;;5.25;;
55784;SDS011;41709;52.536;5.688;2023-09-30T03:18:00;10.32;;;5.90;;
55784;SDS011;41709;52.536;5.688;2023-09-30T03:20:26;12.30;;;5.28;;
55784;SDS011;41709;52.536;5.688;2023-09-30T03:22:52;11.32;;;5.20;;
55784;SDS011;41709;52.536;5.688;2023-09-30T03:25:18;11.63;;;5.05;;
55784;SDS011;41709;52.536;5.688;2023-09-30T03:27:45;14.88;;;6.13;;
55784;SDS011;41709;52.536;5.688;2023-09-30T03:30:12;11.90;;;6.55;;
55784;SDS011;41709;52.536;5.688;2023-09-30T03:32:42;10.75;;;5.05;;
55784;SDS011;41709;52.536;5.688;2023-09-30T03:35:09;10.07;;;5.60;;
55784;SDS011;41709;52.536;5.688;2023-09-30T03:37:42;12.50;;;5.95;;
55784;SDS011;41709;52.536;5.688;2023-09-30T03:40:09;9.27;;;5.57;;
55784;SDS011;41709;52.536;5.688;2023-09-30T03:42:42;10.13;;;5.93;;
55784;SDS011;41709;52.536;5.688;2023-09-30T03:45:08;11.82;;;6.43;;
55784;SDS011;41709;52.536;5.688;2023-09-30T03:47:35;13.48;;;6.82;;
55784;SDS011;41709;52.536;5.688;2023-09-30T03:50:01;11.63;;;5.95;;
55784;SDS011;41709;52.536;5.688;2023-09-30T03:52:29;11.07;;;6.03;;
55784;SDS011;41709;52.536;5.688;2023-09-30T03:54:59;13.45;;;6.30;;
55784;SDS011;41709;52.536;5.688;2023-09-30T03:57:26;14.00;;;6.55;;
55784;SDS011;41709;52.536;5.688;2023-09-30T03:59:54;12.65;;;6.40;;
55784;SDS011;41709;52.536;5.688;2023-09-30T04:02:19;20.73;;;7.72;;
55784;SDS011;41709;52.536;5.688;2023-09-30T04:04:45;14.50;;;6.78;;
55784;SDS011;41709;52.536;5.688;2023-09-30T04:07:11;10.20;;;6.50;;
55784;SDS011;41709;52.536;5.688;2023-09-30T04:09:37;12.43;;;6.40;;
55784;SDS011;41709;52.536;5.688;2023-09-30T04:12:03;15.05;;;6.95;;
55784;SDS011;41709;52.536;5.688;2023-09-30T04:14:29;13.68;;;5.85;;
55784;SDS011;41709;52.536;5.688;2023-09-30T04:16:54;13.57;;;6.47;;
55784;SDS011;41709;52.536;5.688;2023-09-30T04:19:20;11.63;;;6.97;;
55784;SDS011;41709;52.536;5.688;2023-09-30T04:21:46;12.65;;;6.57;;
55784;SDS011;41709;52.536;5.688;2023-09-30T04:24:11;9.80;;;6.05;;
55784;SDS011;41709;52.536;5.688;2023-09-30T04:26:37;13.65;;;6.30;;
55784;SDS011;41709;52.536;5.688;2023-09-30T04:29:03;9.32;;;6.30;;
55784;SDS011;41709;52.536;5.688;2023-09-30T04:31:29;12.52;;;6.53;;
55784;SDS011;41709;52.536;5.688;2023-09-30T04:33:55;14.18;;;6.88;;
55784;SDS011;41709;52.536;5.688;2023-09-30T04:36:22;21.08;;;6.78;;
55784;SDS011;41709;52.536;5.688;2023-09-30T04:38:48;13.75;;;6.38;;
55784;SDS011;41709;52.536;5.688;2023-09-30T04:41:14;13.93;;;6.82;;
55784;SDS011;41709;52.536;5.688;2023-09-30T04:43:41;17.38;;;7.43;;
55784;SDS011;41709;52.536;5.688;2023-09-30T04:46:08;12.07;;;6.85;;
55784;SDS011;41709;52.536;5.688;2023-09-30T04:48:34;9.00;;;6.43;;
55784;SDS011;41709;52.536;5.688;2023-09-30T04:51:00;12.13;;;6.68;;
55784;SDS011;41709;52.536;5.688;2023-09-30T04:53:29;14.13;;;8.10;;
55784;SDS011;41709;52.536;5.688;2023-09-30T04:55:55;13.88;;;7.05;;
55784;SDS011;41709;52.536;5.688;2023-09-30T04:58:21;15.23;;;7.47;;
55784;SDS011;41709;52.536;5.688;2023-09-30T05:00:47;11.88;;;7.22;;
55784;SDS011;41709;52.536;5.688;2023-09-30T05:03:12;17.13;;;8.35;;
55784;SDS011;41709;52.536;5.688;2023-09-30T05:05:38;14.35;;;7.07;;
55784;SDS011;41709;52.536;5.688;2023-09-30T05:08:04;18.75;;;8.35;;
55784;SDS011;41709;52.536;5.688;2023-09-30T05:10:31;14.30;;;7.85;;
55784;SDS011;41709;52.536;5.688;2023-09-30T05:12:56;16.85;;;8.25;;
55784;SDS011;41709;52.536;5.688;2023-09-30T05:15:22;19.52;;;8.35;;
55784;SDS011;41709;52.536;5.688;2023-09-30T05:17:48;16.10;;;8.35;;
55784;SDS011;41709;52.536;5.688;2023-09-30T05:20:14;16.02;;;7.82;;
55784;SDS011;41709;52.536;5.688;2023-09-30T05:22:42;15.18;;;8.50;;
55784;SDS011;41709;52.536;5.688;2023-09-30T05:25:11;19.05;;;9.25;;
55784;SDS011;41709;52.536;5.688;2023-09-30T05:27:43;12.30;;;8.55;;
55784;SDS011;41709;52.536;5.688;2023-09-30T05:30:08;16.77;;;8.93;;
55784;SDS011;41709;52.536;5.688;2023-09-30T05:32:35;19.67;;;9.02;;
55784;SDS011;41709;52.536;5.688;2023-09-30T05:35:03;16.55;;;9.60;;
55784;SDS011;41709;52.536;5.688;2023-09-30T05:37:30;15.57;;;8.65;;
55784;SDS011;41709;52.536;5.688;2023-09-30T05:39:56;16.25;;;8.68;;
55784;SDS011;41709;52.536;5.688;2023-09-30T05:42:21;19.08;;;8.63;;
55784;SDS011;41709;52.536;5.688;2023-09-30T05:44:47;17.23;;;9.73;;
55784;SDS011;41709;52.536;5.688;2023-09-30T05:47:13;14.30;;;9.25;;
55784;SDS011;41709;52.536;5.688;2023-09-30T05:49:40;18.92;;;10.30;;
55784;SDS011;41709;52.536;5.688;2023-09-30T05:52:06;16.70;;;9.27;;
55784;SDS011;41709;52.536;5.688;2023-09-30T05:54:32;14.90;;;8.77;;
55784;SDS011;41709;52.536;5.688;2023-09-30T05:56:58;19.00;;;9.85;;
55784;SDS011;41709;52.536;5.688;2023-09-30T05:59:25;17.70;;;9.25;;
55784;SDS011;41709;52.536;5.688;2023-09-30T06:01:51;14.35;;;9.13;;
55784;SDS011;41709;52.536;5.688;2023-09-30T06:04:16;14.98;;;8.45;;
55784;SDS011;41709;52.536;5.688;2023-09-30T06:06:42;13.32;;;8.85;;
55784;SDS011;41709;52.536;5.688;2023-09-30T06:09:08;13.20;;;8.40;;
55784;SDS011;41709;52.536;5.688;2023-09-30T06:11:34;14.05;;;8.90;;
55784;SDS011;41709;52.536;5.688;2023-09-30T06:14:01;13.85;;;7.68;;
55784;SDS011;41709;52.536;5.688;2023-09-30T06:16:27;10.95;;;8.05;;
55784;SDS011;41709;52.536;5.688;2023-09-30T06:18:53;14.20;;;8.90;;
55784;SDS011;41709;52.536;5.688;2023-09-30T06:21:23;14.10;;;8.20;;
55784;SDS011;41709;52.536;5.688;2023-09-30T06:23:50;12.32;;;7.88;;
55784;SDS011;41709;52.536;5.688;2023-09-30T06:26:18;18.63;;;9.40;;
55784;SDS011;41709;52.536;5.688;2023-09-30T06:28:46;18.23;;;8.73;;
55784;SDS011;41709;52.536;5.688;2023-09-30T06:31:13;16.63;;;8.73;;
55784;SDS011;41709;52.536;5.688;2023-09-30T06:33:39;13.00;;;8.35;;
55784;SDS011;41709;52.536;5.688;2023-09-30T06:36:08;14.00;;;8.95;;
55784;SDS011;41709;52.536;5.688;2023-09-30T06:38:35;12.98;;;9.02;;
55784;SDS011;41709;52.536;5.688;2023-09-30T06:41:02;15.85;;;8.63;;
55784;SDS011;41709;52.536;5.688;2023-09-30T06:43:27;20.10;;;9.90;;
55784;SDS011;41709;52.536;5.688;2023-09-30T06:45:53;16.02;;;9.63;;
55784;SDS011;41709;52.536;5.688;2023-09-30T06:48:19;14.75;;;9.32;;
55784;SDS011;41709;52.536;5.688;2023-09-30T06:50:46;21.67;;;10.00;;
55784;SDS011;41709;52.536;5.688;2023-09-30T06:53:16;13.43;;;9.15;;
55784;SDS011;41709;52.536;5.688;2023-09-30T06:55:44;15.05;;;9.63;;
55784;SDS011;41709;52.536;5.688;2023-09-30T06:58:10;16.25;;;8.88;;
55784;SDS011;41709;52.536;5.688;2023-09-30T07:00:36;17.15;;;9.50;;
55784;SDS011;41709;52.536;5.688;2023-09-30T07:03:03;13.80;;;9.45;;
55784;SDS011;41709;52.536;5.688;2023-09-30T07:05:28;16.30;;;10.15;;
55784;SDS011;41709;52.536;5.688;2023-09-30T07:07:54;16.98;;;8.93;;
55784;SDS011;41709;52.536;5.688;2023-09-30T07:10:20;14.18;;;9.02;;
55784;SDS011;41709;52.536;5.688;2023-09-30T07:12:46;16.88;;;9.60;;
55784;SDS011;41709;52.536;5.688;2023-09-30T07:15:12;16.85;;;9.32;;
55784;SDS011;41709;52.536;5.688;2023-09-30T07:17:39;15.27;;;9.85;;
55784;SDS011;41709;52.536;5.688;2023-09-30T07:20:05;15.57;;;9.70;;
55784;SDS011;41709;52.536;5.688;2023-09-30T07:22:32;20.55;;;10.63;;
55784;SDS011;41709;52.536;5.688;2023-09-30T07:25:00;17.98;;;10.35;;
55784;SDS011;41709;52.536;5.688;2023-09-30T07:27:26;13.70;;;9.38;;
55784;SDS011;41709;52.536;5.688;2023-09-30T07:29:52;16.63;;;9.55;;
55784;SDS011;41709;52.536;5.688;2023-09-30T07:32:17;15.82;;;9.65;;
55784;SDS011;41709;52.536;5.688;2023-09-30T07:34:44;17.42;;;10.65;;
55784;SDS011;41709;52.536;5.688;2023-09-30T07:37:09;18.63;;;9.65;;
55784;SDS011;41709;52.536;5.688;2023-09-30T07:39:35;16.85;;;9.52;;
55784;SDS011;41709;52.536;5.688;2023-09-30T07:42:01;16.88;;;8.73;;
55784;SDS011;41709;52.536;5.688;2023-09-30T07:44:27;16.30;;;9.93;;
55784;SDS011;41709;52.536;5.688;2023-09-30T07:46:53;15.43;;;10.13;;
55784;SDS011;41709;52.536;5.688;2023-09-30T07:49:18;19.67;;;9.90;;
55784;SDS011;41709;52.536;5.688;2023-09-30T07:51:44;17.00;;;10.07;;
55784;SDS011;41709;52.536;5.688;2023-09-30T07:54:11;17.17;;;10.05;;
55784;SDS011;41709;52.536;5.688;2023-09-30T07:56:37;20.17;;;10.35;;
55784;SDS011;41709;52.536;5.688;2023-09-30T07:59:03;16.15;;;9.55;;
55784;SDS011;41709;52.536;5.688;2023-09-30T08:01:30;14.40;;;9.45;;
55784;SDS011;41709;52.536;5.688;2023-09-30T08:03:56;16.05;;;9.55;;
55784;SDS011;41709;52.536;5.688;2023-09-30T08:06:21;14.48;;;9.55;;
55784;SDS011;41709;52.536;5.688;2023-09-30T08:08:47;15.63;;;9.60;;
55784;SDS011;41709;52.536;5.688;2023-09-30T08:11:12;18.13;;;9.52;;
55784;SDS011;41709;52.536;5.688;2023-09-30T08:13:38;19.60;;;10.07;;
55784;SDS011;41709;52.536;5.688;2023-09-30T08:16:04;14.80;;;9.77;;
55784;SDS011;41709;52.536;5.688;2023-09-30T08:18:30;15.38;;;9.88;;
55784;SDS011;41709;52.536;5.688;2023-09-30T08:20:56;14.68;;;8.57;;
55784;SDS011;41709;52.536;5.688;2023-09-30T08:23:21;17.92;;;8.95;;
55784;SDS011;41709;52.536;5.688;2023-09-30T08:25:47;16.45;;;9.77;;
55784;SDS011;41709;52.536;5.688;2023-09-30T08:28:13;16.58;;;10.05;;
55784;SDS011;41709;52.536;5.688;2023-09-30T08:30:39;14.98;;;8.57;;
55784;SDS011;41709;52.536;5.688;2023-09-30T08:33:05;15.80;;;8.90;;
55784;SDS011;41709;52.536;5.688;2023-09-30T08:35:34;18.80;;;8.82;;
55784;SDS011;41709;52.536;5.688;2023-09-30T08:38:01;18.38;;;8.60;;
55784;SDS011;41709;52.536;5.688;2023-09-30T08:40:27;13.13;;;8.32;;
55784;SDS011;41709;52.536;5.688;2023-09-30T08:42:53;15.77;;;8.68;;
55784;SDS011;41709;52.536;5.688;2023-09-30T08:45:19;13.73;;;8.52;;
55784;SDS011;41709;52.536;5.688;2023-09-30T08:47:45;16.13;;;8.13;;
55784;SDS011;41709;52.536;5.688;2023-09-30T08:50:11;19.33;;;8.00;;
55784;SDS011;41709;52.536;5.688;2023-09-30T08:52:39;14.82;;;8.30;;
55784;SDS011;41709;52.536;5.688;2023-09-30T08:55:06;15.90;;;8.25;;
55784;SDS011;41709;52.536;5.688;2023-09-30T08:57:33;17.20;;;8.68;;
55784;SDS011;41709;52.536;5.688;2023-09-30T09:00:04;11.90;;;7.82;;
55784;SDS011;41709;52.536;5.688;2023-09-30T09:02:33;13.93;;;8.48;;
55784;SDS011;41709;52.536;5.688;2023-09-30T09:05:00;11.80;;;8.05;;
55784;SDS011;41709;52.536;5.688;2023-09-30T09:07:27;15.20;;;8.02;;
55784;SDS011;41709;52.536;5.688;2023-09-30T09:10:11;16.90;;;8.88;;
55784;SDS011;41709;52.536;5.688;2023-09-30T09:12:40;14.52;;;9.05;;
55784;SDS011;41709;52.536;5.688;2023-09-30T09:15:07;18.83;;;8.38;;
55784;SDS011;41709;52.536;5.688;2023-09-30T09:17:43;14.05;;;7.65;;
55784;SDS011;41709;52.536;5.688;2023-09-30T09:20:10;14.35;;;8.50;;
55784;SDS011;41709;52.536;5.688;2023-09-30T09:25:08;17.27;;;8.88;;
55784;SDS011;41709;52.536;5.688;2023-09-30T09:27:34;13.40;;;8.63;;
55784;SDS011;41709;52.536;5.688;2023-09-30T09:35:34;14.43;;;7.53;;
55784;SDS011;41709;52.536;5.688;2023-09-30T09:38:00;17.92;;;8.88;;
55784;SDS011;41709;52.536;5.688;2023-09-30T09:40:27;13.73;;;7.80;;
55784;SDS011;41709;52.536;5.688;2023-09-30T09:42:55;12.77;;;7.85;;
55784;SDS011;41709;52.536;5.688;2023-09-30T09:45:22;16.13;;;8.25;;
55784;SDS011;41709;52.536;5.688;2023-09-30T09:47:50;15.63;;;8.15;;
55784;SDS011;41709;52.536;5.688;2023-09-30T09:50:18;16.67;;;7.78;;
55784;SDS011;41709;52.536;5.688;2023-09-30T09:52:50;13.65;;;8.18;;
55784;SDS011;41709;52.536;5.688;2023-09-30T09:55:17;12.52;;;6.75;;
55784;SDS011;41709;52.536;5.688;2023-09-30T09:57:44;17.48;;;6.18;;
55784;SDS011;41709;52.536;5.688;2023-09-30T10:00:12;12.27;;;6.15;;
55784;SDS011;41709;52.536;5.688;2023-09-30T10:02:40;13.65;;;6.70;;
55784;SDS011;41709;52.536;5.688;2023-09-30T10:05:06;13.80;;;6.40;;
55784;SDS011;41709;52.536;5.688;2023-09-30T10:07:34;14.40;;;5.90;;
55784;SDS011;41709;52.536;5.688;2023-09-30T10:10:05;12.60;;;5.35;;
55784;SDS011;41709;52.536;5.688;2023-09-30T10:12:37;14.32;;;6.68;;
55784;SDS011;41709;52.536;5.688;2023-09-30T10:20:35;11.30;;;4.80;;
55784;SDS011;41709;52.536;5.688;2023-09-30T10:25:44;8.70;;;4.03;;
55784;SDS011;41709;52.536;5.688;2023-09-30T10:36:30;11.98;;;4.10;;
55784;SDS011;41709;52.536;5.688;2023-09-30T10:39:00;6.75;;;3.33;;
55784;SDS011;41709;52.536;5.688;2023-09-30T10:46:50;9.27;;;2.85;;
55784;SDS011;41709;52.536;5.688;2023-09-30T10:51:51;11.68;;;2.70;;
55784;SDS011;41709;52.536;5.688;2023-09-30T10:54:24;10.15;;;2.20;;
55784;SDS011;41709;52.536;5.688;2023-09-30T10:56:51;7.15;;;1.58;;
55784;SDS011;41709;52.536;5.688;2023-09-30T11:01:49;6.82;;;1.40;;
55784;SDS011;41709;52.536;5.688;2023-09-30T11:04:15;9.15;;;2.42;;
55784;SDS011;41709;52.536;5.688;2023-09-30T11:06:42;5.60;;;1.85;;
55784;SDS011;41709;52.536;5.688;2023-09-30T11:09:08;9.45;;;2.40;;
55784;SDS011;41709;52.536;5.688;2023-09-30T11:11:40;6.72;;;2.65;;
55784;SDS011;41709;52.536;5.688;2023-09-30T11:14:21;7.38;;;2.38;;
55784;SDS011;41709;52.536;5.688;2023-09-30T11:16:47;10.38;;;2.20;;
55784;SDS011;41709;52.536;5.688;2023-09-30T11:19:15;11.05;;;2.33;;
55784;SDS011;41709;52.536;5.688;2023-09-30T11:21:41;7.88;;;2.00;;
55784;SDS011;41709;52.536;5.688;2023-09-30T11:24:08;11.23;;;1.87;;
55784;SDS011;41709;52.536;5.688;2023-09-30T11:26:34;7.68;;;1.83;;
55784;SDS011;41709;52.536;5.688;2023-09-30T11:29:04;7.95;;;1.83;;
55784;SDS011;41709;52.536;5.688;2023-09-30T11:31:31;8.13;;;1.65;;
55784;SDS011;41709;52.536;5.688;2023-09-30T11:33:59;8.55;;;1.55;;
55784;SDS011;41709;52.536;5.688;2023-09-30T11:36:29;6.53;;;1.55;;
55784;SDS011;41709;52.536;5.688;2023-09-30T11:38:56;10.15;;;1.85;;
55784;SDS011;41709;52.536;5.688;2023-09-30T11:41:22;5.80;;;1.52;;
55784;SDS011;41709;52.536;5.688;2023-09-30T11:43:57;5.95;;;1.50;;
55784;SDS011;41709;52.536;5.688;2023-09-30T11:46:25;9.98;;;1.63;;
55784;SDS011;41709;52.536;5.688;2023-09-30T11:49:02;7.03;;;2.22;;
55784;SDS011;41709;52.536;5.688;2023-09-30T11:51:29;6.95;;;1.48;;
55784;SDS011;41709;52.536;5.688;2023-09-30T11:54:07;11.02;;;2.00;;
55784;SDS011;41709;52.536;5.688;2023-09-30T11:56:35;6.10;;;1.27;;
55784;SDS011;41709;52.536;5.688;2023-09-30T11:59:02;7.47;;;1.55;;
55784;SDS011;41709;52.536;5.688;2023-09-30T12:01:29;16.38;;;2.72;;
55784;SDS011;41709;52.536;5.688;2023-09-30T12:03:57;5.03;;;1.42;;
55784;SDS011;41709;52.536;5.688;2023-09-30T12:06:29;12.88;;;1.70;;
55784;SDS011;41709;52.536;5.688;2023-09-30T12:08:55;5.90;;;1.40;;
55784;SDS011;41709;52.536;5.688;2023-09-30T12:11:21;4.93;;;1.20;;
55784;SDS011;41709;52.536;5.688;2023-09-30T12:13:48;5.63;;;2.08;;
55784;SDS011;41709;52.536;5.688;2023-09-30T12:16:15;6.00;;;1.23;;
55784;SDS011;41709;52.536;5.688;2023-09-30T12:18:41;7.22;;;1.45;;
55784;SDS011;41709;52.536;5.688;2023-09-30T12:21:11;5.63;;;1.45;;
55784;SDS011;41709;52.536;5.688;2023-09-30T12:23:38;3.55;;;1.02;;
55784;SDS011;41709;52.536;5.688;2023-09-30T12:26:04;4.55;;;1.27;;
55784;SDS011;41709;52.536;5.688;2023-09-30T12:28:31;5.35;;;2.03;;
55784;SDS011;41709;52.536;5.688;2023-09-30T12:30:57;6.13;;;1.60;;
55784;SDS011;41709;52.536;5.688;2023-09-30T12:33:24;6.93;;;2.15;;
55784;SDS011;41709;52.536;5.688;2023-09-30T12:35:49;5.50;;;1.58;;
55784;SDS011;41709;52.536;5.688;2023-09-30T12:38:16;6.13;;;1.58;;
55784;SDS011;41709;52.536;5.688;2023-09-30T12:40:42;8.00;;;1.50;;
55784;SDS011;41709;52.536;5.688;2023-09-30T12:43:08;5.22;;;1.83;;
55784;SDS011;41709;52.536;5.688;2023-09-30T12:45:35;11.07;;;2.25;;
55784;SDS011;41709;52.536;5.688;2023-09-30T12:48:03;6.07;;;2.00;;
55784;SDS011;41709;52.536;5.688;2023-09-30T12:50:29;4.18;;;1.10;;
55784;SDS011;41709;52.536;5.688;2023-09-30T12:52:55;7.65;;;1.65;;
55784;SDS011;41709;52.536;5.688;2023-09-30T12:55:20;6.03;;;1.30;;
55784;SDS011;41709;52.536;5.688;2023-09-30T12:57:46;5.38;;;1.98;;
55784;SDS011;41709;52.536;5.688;2023-09-30T13:00:11;7.97;;;2.10;;
55784;SDS011;41709;52.536;5.688;2023-09-30T13:02:37;5.55;;;1.25;;
55784;SDS011;41709;52.536;5.688;2023-09-30T13:05:03;7.10;;;1.90;;
55784;SDS011;41709;52.536;5.688;2023-09-30T13:07:31;5.53;;;1.42;;
55784;SDS011;41709;52.536;5.688;2023-09-30T13:09:57;6.07;;;2.33;;
55784;SDS011;41709;52.536;5.688;2023-09-30T13:12:25;5.72;;;1.27;;
55784;SDS011;41709;52.536;5.688;2023-09-30T13:14:51;4.60;;;1.35;;
55784;SDS011;41709;52.536;5.688;2023-09-30T13:17:21;4.68;;;1.58;;
55784;SDS011;41709;52.536;5.688;2023-09-30T13:19:50;5.25;;;1.17;;
55784;SDS011;41709;52.536;5.688;2023-09-30T13:22:16;5.65;;;1.95;;
55784;SDS011;41709;52.536;5.688;2023-09-30T13:24:42;4.75;;;1.73;;
55784;SDS011;41709;52.536;5.688;2023-09-30T13:27:08;9.65;;;1.42;;
55784;SDS011;41709;52.536;5.688;2023-09-30T13:29:34;4.38;;;1.45;;
55784;SDS011;41709;52.536;5.688;2023-09-30T13:32:00;4.85;;;1.83;;
55784;SDS011;41709;52.536;5.688;2023-09-30T13:34:26;6.43;;;1.88;;
55784;SDS011;41709;52.536;5.688;2023-09-30T13:36:52;9.25;;;1.27;;
55784;SDS011;41709;52.536;5.688;2023-09-30T13:39:19;5.60;;;1.60;;
55784;SDS011;41709;52.536;5.688;2023-09-30T13:41:45;7.40;;;1.73;;
55784;SDS011;41709;52.536;5.688;2023-09-30T13:44:12;9.55;;;1.90;;
55784;SDS011;41709;52.536;5.688;2023-09-30T13:46:38;7.25;;;1.42;;
55784;SDS011;41709;52.536;5.688;2023-09-30T13:49:04;7.60;;;1.88;;
55784;SDS011;41709;52.536;5.688;2023-09-30T13:51:29;4.10;;;1.50;;
55784;SDS011;41709;52.536;5.688;2023-09-30T13:53:55;6.78;;;2.38;;
55784;SDS011;41709;52.536;5.688;2023-09-30T13:56:20;6.40;;;1.50;;
55784;SDS011;41709;52.536;5.688;2023-09-30T13:58:46;4.25;;;1.40;;
55784;SDS011;41709;52.536;5.688;2023-09-30T14:01:13;5.57;;;1.27;;
55784;SDS011;41709;52.536;5.688;2023-09-30T14:03:39;4.57;;;1.23;;
55784;SDS011;41709;52.536;5.688;2023-09-30T14:06:09;5.25;;;1.13;;
55784;SDS011;41709;52.536;5.688;2023-09-30T14:08:36;5.72;;;1.40;;
55784;SDS011;41709;52.536;5.688;2023-09-30T14:11:01;3.90;;;1.30;;
55784;SDS011;41709;52.536;5.688;2023-09-30T14:13:27;4.60;;;1.55;;
55784;SDS011;41709;52.536;5.688;2023-09-30T14:15:52;7.18;;;1.75;;
55784;SDS011;41709;52.536;5.688;2023-09-30T14:18:18;3.75;;;1.52;;
55784;SDS011;41709;52.536;5.688;2023-09-30T14:20:43;7.22;;;1.63;;
55784;SDS011;41709;52.536;5.688;2023-09-30T14:23:09;5.95;;;1.75;;
55784;SDS011;41709;52.536;5.688;2023-09-30T14:25:35;5.05;;;1.70;;
55784;SDS011;41709;52.536;5.688;2023-09-30T14:28:00;8.15;;;1.77;;
55784;SDS011;41709;52.536;5.688;2023-09-30T14:30:26;7.25;;;1.38;;
55784;SDS011;41709;52.536;5.688;2023-09-30T14:32:52;6.65;;;2.22;;
55784;SDS011;41709;52.536;5.688;2023-09-30T14:35:19;6.88;;;1.65;;
55784;SDS011;41709;52.536;5.688;2023-09-30T14:37:45;10.43;;;1.23;;
55784;SDS011;41709;52.536;5.688;2023-09-30T14:40:10;7.28;;;1.63;;
55784;SDS011;41709;52.536;5.688;2023-09-30T14:42:37;8.65;;;1.77;;
55784;SDS011;41709;52.536;5.688;2023-09-30T14:45:03;7.45;;;1.40;;
55784;SDS011;41709;52.536;5.688;2023-09-30T14:47:29;8.23;;;1.50;;
55784;SDS011;41709;52.536;5.688;2023-09-30T14:49:54;4.93;;;1.73;;
55784;SDS011;41709;52.536;5.688;2023-09-30T14:52:20;6.82;;;1.42;;
55784;SDS011;41709;52.536;5.688;2023-09-30T14:54:46;6.63;;;1.50;;
55784;SDS011;41709;52.536;5.688;2023-09-30T14:57:12;6.38;;;2.00;;
55784;SDS011;41709;52.536;5.688;2023-09-30T14:59:40;8.95;;;1.65;;
55784;SDS011;41709;52.536;5.688;2023-09-30T15:02:06;5.97;;;1.60;;
55784;SDS011;41709;52.536;5.688;2023-09-30T15:04:35;4.68;;;1.52;;
55784;SDS011;41709;52.536;5.688;2023-09-30T15:07:01;5.65;;;1.55;;
55784;SDS011;41709;52.536;5.688;2023-09-30T15:09:27;5.53;;;1.40;;